Terminal Aerodrome Forecast
Issued by NWS Lake Charles, LA

Home | Current Version | Previous Version | Text Only | Print | Product List | Glossary On
Versions: 1 2 3 4 5 6 7 8 9 10 11 12 13 14 15 16 17 18
000
FTUS44 KLCH 280522
TAFBPT
TAF
KBPT 280522Z 2806/0106 16012G18KT P6SM VCSH SCT025 OVC035
      TEMPO 2806/2810 SCT019 BKN022 BKN035
     FM281000 16011G18KT P6SM BKN017
      TEMPO 2810/2814 5SM BR OVC009
     FM281400 16010KT 5SM BR OVC009
      TEMPO 2815/2818 BKN025 BKN035
     FM281800 16017G24KT P6SM SCT028 OVC045=

USA.gov is the U.S. government's official web portal to all federal, state and local government web resources and services.